sensor_id;sensor_type;location;lat;lon;timestamp;pressure;altitude;pressure_sealevel;temperature;humidity
63399;BME280;49533;-34.520;150.798;2023-02-22T00:00:23;101696.72;;;20.76;62.98
63399;BME280;49533;-34.520;150.798;2023-02-22T00:03:02;101702.34;;;20.80;62.63
63399;BME280;49533;-34.520;150.798;2023-02-22T00:05:29;101706.38;;;20.82;62.28
63399;BME280;49533;-34.520;150.798;2023-02-22T00:07:56;101704.78;;;20.57;62.43
63399;BME280;49533;-34.520;150.798;2023-02-22T00:10:25;101711.91;;;20.46;63.35
63399;BME280;49533;-34.520;150.798;2023-02-22T00:12:54;101707.75;;;20.39;63.72
63399;BME280;49533;-34.520;150.798;2023-02-22T00:15:23;101718.22;;;20.46;63.64
63399;BME280;49533;-34.520;150.798;2023-02-22T00:17:53;101711.22;;;20.49;63.69
63399;BME280;49533;-34.520;150.798;2023-02-22T00:20:21;101708.09;;;20.50;63.92
63399;BME280;49533;-34.520;150.798;2023-02-22T00:22:50;101714.44;;;20.51;63.88
63399;BME280;49533;-34.520;150.798;2023-02-22T00:25:20;101713.75;;;20.54;63.58
63399;BME280;49533;-34.520;150.798;2023-02-22T00:27:49;101708.56;;;20.52;64.01
63399;BME280;49533;-34.520;150.798;2023-02-22T00:30:22;101709.34;;;20.53;63.89
63399;BME280;49533;-34.520;150.798;2023-02-22T00:32:50;101703.84;;;20.53;63.82
63399;BME280;49533;-34.520;150.798;2023-02-22T00:35:19;101700.28;;;20.52;64.09
63399;BME280;49533;-34.520;150.798;2023-02-22T00:37:49;101702.69;;;20.54;63.65
63399;BME280;49533;-34.520;150.798;2023-02-22T00:40:19;101699.94;;;20.54;64.07
63399;BME280;49533;-34.520;150.798;2023-02-22T00:42:46;101694.75;;;20.52;64.39
63399;BME280;49533;-34.520;150.798;2023-02-22T00:45:17;101709.72;;;20.51;64.01
63399;BME280;49533;-34.520;150.798;2023-02-22T00:47:44;101706.03;;;20.47;64.36
63399;BME280;49533;-34.520;150.798;2023-02-22T00:50:12;101714.31;;;20.47;64.33
63399;BME280;49533;-34.520;150.798;2023-02-22T00:52:39;101704.53;;;20.50;64.10
63399;BME280;49533;-34.520;150.798;2023-02-22T00:55:08;101698.22;;;20.49;64.05
63399;BME280;49533;-34.520;150.798;2023-02-22T00:57:36;101705.94;;;20.44;63.66
63399;BME280;49533;-34.520;150.798;2023-02-22T01:00:05;101692.34;;;20.26;64.16
63399;BME280;49533;-34.520;150.798;2023-02-22T01:02:37;101701.09;;;20.40;63.63
63399;BME280;49533;-34.520;150.798;2023-02-22T01:05:07;101686.72;;;20.35;63.34
63399;BME280;49533;-34.520;150.798;2023-02-22T01:07:35;101695.44;;;20.37;63.58
63399;BME280;49533;-34.520;150.798;2023-02-22T01:10:02;101700.41;;;20.44;63.54
63399;BME280;49533;-34.520;150.798;2023-02-22T01:12:30;101698.78;;;20.42;63.37
63399;BME280;49533;-34.520;150.798;2023-02-22T01:14:57;101696.16;;;20.46;63.20
63399;BME280;49533;-34.520;150.798;2023-02-22T01:17:25;101684.31;;;20.46;62.22
63399;BME280;49533;-34.520;150.798;2023-02-22T01:19:53;101685.09;;;20.46;62.46
63399;BME280;49533;-34.520;150.798;2023-02-22T01:22:19;101682.44;;;20.50;62.26
63399;BME280;49533;-34.520;150.798;2023-02-22T01:24:48;101675.78;;;20.51;62.12
63399;BME280;49533;-34.520;150.798;2023-02-22T01:27:16;101681.75;;;20.53;61.86
63399;BME280;49533;-34.520;150.798;2023-02-22T01:29:44;101674.75;;;20.55;62.17
63399;BME280;49533;-34.520;150.798;2023-02-22T01:32:11;101670.50;;;20.58;62.15
63399;BME280;49533;-34.520;150.798;2023-02-22T01:34:38;101676.94;;;20.62;62.56
63399;BME280;49533;-34.520;150.798;2023-02-22T01:37:06;101673.72;;;20.60;62.12
63399;BME280;49533;-34.520;150.798;2023-02-22T01:39:33;101666.59;;;20.59;62.56
63399;BME280;49533;-34.520;150.798;2023-02-22T01:42:00;101663.84;;;20.59;62.95
63399;BME280;49533;-34.520;150.798;2023-02-22T01:44:33;101658.53;;;20.54;62.63
63399;BME280;49533;-34.520;150.798;2023-02-22T01:47:03;101667.31;;;20.56;63.19
63399;BME280;49533;-34.520;150.798;2023-02-22T01:49:37;101671.19;;;20.55;63.05
63399;BME280;49533;-34.520;150.798;2023-02-22T01:52:09;101676.03;;;20.58;63.17
63399;BME280;49533;-34.520;150.798;2023-02-22T01:54:41;101669.69;;;20.57;63.23
63399;BME280;49533;-34.520;150.798;2023-02-22T01:57:24;101678.44;;;20.59;63.15
63399;BME280;49533;-34.520;150.798;2023-02-22T01:59:59;101657.25;;;20.51;63.50
63399;BME280;49533;-34.520;150.798;2023-02-22T02:02:36;101661.09;;;20.59;63.13
63399;BME280;49533;-34.520;150.798;2023-02-22T02:05:07;101658.09;;;20.64;62.99
63399;BME280;49533;-34.520;150.798;2023-02-22T02:07:36;101665.91;;;20.62;63.08
63399;BME280;49533;-34.520;150.798;2023-02-22T02:10:07;101654.06;;;20.61;63.33
63399;BME280;49533;-34.520;150.798;2023-02-22T02:12:42;101660.84;;;20.64;63.39
63399;BME280;49533;-34.520;150.798;2023-02-22T02:15:24;101664.06;;;20.66;63.87
63399;BME280;49533;-34.520;150.798;2023-02-22T02:17:57;101666.47;;;20.68;63.62
63399;BME280;49533;-34.520;150.798;2023-02-22T02:20:46;101653.44;;;20.68;63.67
63399;BME280;49533;-34.520;150.798;2023-02-22T02:26:52;101643.00;;;20.61;63.07
63399;BME280;49533;-34.520;150.798;2023-02-22T02:29:46;101641.16;;;20.66;61.98
63399;BME280;49533;-34.520;150.798;2023-02-22T02:32:27;101652.44;;;20.60;61.81
63399;BME280;49533;-34.520;150.798;2023-02-22T02:35:14;101647.63;;;20.57;60.71
63399;BME280;49533;-34.520;150.798;2023-02-22T02:38:03;101650.03;;;20.59;60.92
63399;BME280;49533;-34.520;150.798;2023-02-22T02:43:27;101657.16;;;20.60;61.29
63399;BME280;49533;-34.520;150.798;2023-02-22T02:46:05;101655.09;;;20.57;61.07
63399;BME280;49533;-34.520;150.798;2023-02-22T02:48:35;101650.38;;;20.57;61.35
63399;BME280;49533;-34.520;150.798;2023-02-22T02:51:06;101647.63;;;20.57;61.00
63399;BME280;49533;-34.520;150.798;2023-02-22T02:53:39;101653.94;;;20.58;61.12
63399;BME280;49533;-34.520;150.798;2023-02-22T02:56:07;101648.41;;;20.58;61.26
63399;BME280;49533;-34.520;150.798;2023-02-22T02:58:44;101653.50;;;20.56;60.49
63399;BME280;49533;-34.520;150.798;2023-02-22T03:01:21;101647.63;;;20.57;61.48
63399;BME280;49533;-34.520;150.798;2023-02-22T03:04:10;101645.56;;;20.54;60.46
63399;BME280;49533;-34.520;150.798;2023-02-22T03:07:14;101652.81;;;20.59;60.97
63399;BME280;49533;-34.520;150.798;2023-02-22T03:10:01;101651.53;;;20.56;61.35
63399;BME280;49533;-34.520;150.798;2023-02-22T03:15:38;101634.97;;;20.56;61.59
63399;BME280;49533;-34.520;150.798;2023-02-22T03:18:17;101634.38;;;20.51;61.47
63399;BME280;49533;-34.520;150.798;2023-02-22T03:23:57;101640.34;;;20.53;60.95
63399;BME280;49533;-34.520;150.798;2023-02-22T03:26:34;101630.22;;;20.45;60.52
63399;BME280;49533;-34.520;150.798;2023-02-22T03:29:05;101646.34;;;20.55;61.09
63399;BME280;49533;-34.520;150.798;2023-02-22T03:31:39;101639.69;;;20.56;60.89
63399;BME280;49533;-34.520;150.798;2023-02-22T03:34:12;101641.28;;;20.57;60.30
63399;BME280;49533;-34.520;150.798;2023-02-22T03:36:46;101636.44;;;20.54;58.61
63399;BME280;49533;-34.520;150.798;2023-02-22T03:39:15;101624.94;;;20.52;58.87
63399;BME280;49533;-34.520;150.798;2023-02-22T03:41:48;101630.91;;;20.54;58.62
63399;BME280;49533;-34.520;150.798;2023-02-22T03:44:21;101612.06;;;20.44;59.14
63399;BME280;49533;-34.520;150.798;2023-02-22T03:46:53;101620.59;;;20.51;58.91
63399;BME280;49533;-34.520;150.798;2023-02-22T03:49:33;101630.34;;;20.48;59.12
63399;BME280;49533;-34.520;150.798;2023-02-22T03:52:02;101615.72;;;20.48;59.00
63399;BME280;49533;-34.520;150.798;2023-02-22T03:54:31;101615.72;;;20.48;58.46
63399;BME280;49533;-34.520;150.798;2023-02-22T03:57:11;101631.16;;;20.49;58.57
63399;BME280;49533;-34.520;150.798;2023-02-22T03:59:39;101618.84;;;20.46;58.15
63399;BME280;49533;-34.520;150.798;2023-02-22T04:02:06;101613.78;;;20.48;56.86
63399;BME280;49533;-34.520;150.798;2023-02-22T04:04:34;101610.00;;;20.40;55.86
63399;BME280;49533;-34.520;150.798;2023-02-22T04:07:01;101612.53;;;20.46;56.32
63399;BME280;49533;-34.520;150.798;2023-02-22T04:09:28;101609.31;;;20.44;56.70
63399;BME280;49533;-34.520;150.798;2023-02-22T04:11:56;101612.06;;;20.44;56.91
63399;BME280;49533;-34.520;150.798;2023-02-22T04:14:23;101622.09;;;20.48;56.94
63399;BME280;49533;-34.520;150.798;2023-02-22T04:16:50;101619.66;;;20.47;57.25
63399;BME280;49533;-34.520;150.798;2023-02-22T04:19:17;101615.63;;;20.44;55.86
63399;BME280;49533;-34.520;150.798;2023-02-22T04:21:44;101614.38;;;20.41;56.14
63399;BME280;49533;-34.520;150.798;2023-02-22T04:24:12;101602.63;;;20.45;57.32
63399;BME280;49533;-34.520;150.798;2023-02-22T04:26:39;101607.44;;;20.48;57.22
63399;BME280;49533;-34.520;150.798;2023-02-22T04:29:06;101595.06;;;20.41;57.69
63399;BME280;49533;-34.520;150.798;2023-02-22T04:31:33;101603.66;;;20.52;58.04
63399;BME280;49533;-34.520;150.798;2023-02-22T04:34:01;101596.41;;;20.48;57.93
63399;BME280;49533;-34.520;150.798;2023-02-22T04:36:28;101600.22;;;20.55;58.44
63399;BME280;49533;-34.520;150.798;2023-02-22T04:38:59;101601.94;;;20.60;58.33
63399;BME280;49533;-34.520;150.798;2023-02-22T04:41:26;101596.41;;;20.60;57.97
63399;BME280;49533;-34.520;150.798;2023-02-22T04:43:54;101607.13;;;20.61;58.17
63399;BME280;49533;-34.520;150.798;2023-02-22T04:46:21;101580.31;;;20.50;58.62
63399;BME280;49533;-34.520;150.798;2023-02-22T04:48:48;101597.13;;;20.57;58.46
63399;BME280;49533;-34.520;150.798;2023-02-22T04:51:16;101599.97;;;20.60;58.73
63399;BME280;49533;-34.520;150.798;2023-02-22T04:53:43;101593.31;;;20.61;58.13
63399;BME280;49533;-34.520;150.798;2023-02-22T04:56:10;101587.78;;;20.61;58.76
63399;BME280;49533;-34.520;150.798;2023-02-22T04:58:37;101588.94;;;20.60;58.71
63399;BME280;49533;-34.520;150.798;2023-02-22T05:01:04;101588.59;;;20.62;59.03
63399;BME280;49533;-34.520;150.798;2023-02-22T05:03:31;101592.28;;;20.66;58.70
63399;BME280;49533;-34.520;150.798;2023-02-22T05:05:58;101591.81;;;20.64;59.02
63399;BME280;49533;-34.520;150.798;2023-02-22T05:08:25;101579.84;;;20.60;58.69
63399;BME280;49533;-34.520;150.798;2023-02-22T05:10:52;101589.06;;;20.64;58.27
63399;BME280;49533;-34.520;150.798;2023-02-22T05:13:20;101580.31;;;20.62;59.04
63399;BME280;49533;-34.520;150.798;2023-02-22T05:15:48;101588.69;;;20.66;59.02
63399;BME280;49533;-34.520;150.798;2023-02-22T05:18:15;101584.00;;;20.66;58.73
63399;BME280;49533;-34.520;150.798;2023-02-22T05:20:42;101582.03;;;20.67;58.49
63399;BME280;49533;-34.520;150.798;2023-02-22T05:23:09;101583.53;;;20.64;59.12
63399;BME280;49533;-34.520;150.798;2023-02-22T05:25:36;101561.69;;;20.59;58.94
63399;BME280;49533;-34.520;150.798;2023-02-22T05:28:09;101570.59;;;20.68;58.94
63399;BME280;49533;-34.520;150.798;2023-02-22T05:30:37;101582.78;;;20.79;58.96
63399;BME280;49533;-34.520;150.798;2023-02-22T05:33:05;101588.78;;;20.81;59.26
63399;BME280;49533;-34.520;150.798;2023-02-22T05:35:32;101590.81;;;20.84;59.52
63399;BME280;49533;-34.520;150.798;2023-02-22T05:37:59;101585.38;;;20.88;59.41
63399;BME280;49533;-34.520;150.798;2023-02-22T05:40:28;101591.47;;;20.94;59.18
63399;BME280;49533;-34.520;150.798;2023-02-22T05:42:56;101597.09;;;20.97;59.71
63399;BME280;49533;-34.520;150.798;2023-02-22T05:45:26;101595.13;;;20.98;59.50
63399;BME280;49533;-34.520;150.798;2023-02-22T05:47:54;101588.03;;;20.97;59.64
63399;BME280;49533;-34.520;150.798;2023-02-22T05:50:22;101585.59;;;20.95;59.51
63399;BME280;49533;-34.520;150.798;2023-02-22T05:52:49;101588.09;;;21.00;59.25
63399;BME280;49533;-34.520;150.798;2023-02-22T05:55:19;101592.13;;;21.03;59.73
63399;BME280;49533;-34.520;150.798;2023-02-22T05:57:47;101588.22;;;21.04;59.88
63399;BME280;49533;-34.520;150.798;2023-02-22T06:00:17;101590.28;;;21.07;60.17
63399;BME280;49533;-34.520;150.798;2023-02-22T06:02:45;101592.16;;;20.91;60.74
63399;BME280;49533;-34.520;150.798;2023-02-22T06:05:12;101592.28;;;20.94;60.76
63399;BME280;49533;-34.520;150.798;2023-02-22T06:07:39;101589.28;;;20.99;60.85
63399;BME280;49533;-34.520;150.798;2023-02-22T06:10:06;101594.19;;;21.06;60.74
63399;BME280;49533;-34.520;150.798;2023-02-22T06:12:33;101587.06;;;21.05;60.96
63399;BME280;49533;-34.520;150.798;2023-02-22T06:15:00;101583.56;;;21.08;60.96
63399;BME280;49533;-34.520;150.798;2023-02-22T06:17:28;101591.97;;;21.12;60.49
63399;BME280;49533;-34.520;150.798;2023-02-22T06:19:56;101583.69;;;21.12;60.90
63399;BME280;49533;-34.520;150.798;2023-02-22T06:22:23;101584.94;;;21.14;60.76
63399;BME280;49533;-34.520;150.798;2023-02-22T06:24:50;101587.72;;;21.14;60.86
63399;BME280;49533;-34.520;150.798;2023-02-22T06:27:17;101576.91;;;21.09;60.91
63399;BME280;49533;-34.520;150.798;2023-02-22T06:29:45;101591.00;;;21.20;61.07
63399;BME280;49533;-34.520;150.798;2023-02-22T06:32:13;101577.19;;;21.20;60.97
63399;BME280;49533;-34.520;150.798;2023-02-22T06:34:40;101578.00;;;21.20;60.88
63399;BME280;49533;-34.520;150.798;2023-02-22T06:37:07;101572.81;;;21.19;61.33
63399;BME280;49533;-34.520;150.798;2023-02-22T06:39:34;101579.59;;;21.21;61.20
63399;BME280;49533;-34.520;150.798;2023-02-22T06:42:02;101582.34;;;21.21;60.95
63399;BME280;49533;-34.520;150.798;2023-02-22T06:44:29;101569.69;;;21.20;61.17
63399;BME280;49533;-34.520;150.798;2023-02-22T06:46:56;101571.28;;;21.21;60.98
63399;BME280;49533;-34.520;150.798;2023-02-22T06:49:25;101582.81;;;21.23;61.26
63399;BME280;49533;-34.520;150.798;2023-02-22T06:51:53;101578.78;;;21.21;61.28
63399;BME280;49533;-34.520;150.798;2023-02-22T06:54:21;101577.19;;;21.20;61.10
63399;BME280;49533;-34.520;150.798;2023-02-22T06:56:48;101579.59;;;21.21;61.25
63399;BME280;49533;-34.520;150.798;2023-02-22T06:59:16;101585.56;;;21.23;61.40
63399;BME280;49533;-34.520;150.798;2023-02-22T07:01:43;101584.78;;;21.23;61.37
63399;BME280;49533;-34.520;150.798;2023-02-22T07:04:10;101572.91;;;21.22;61.17
63399;BME280;49533;-34.520;150.798;2023-02-22T07:06:37;101581.09;;;21.19;61.12
63399;BME280;49533;-34.520;150.798;2023-02-22T07:09:04;101587.19;;;21.24;61.27
63399;BME280;49533;-34.520;150.798;2023-02-22T07:11:31;101595.03;;;21.22;61.62
63399;BME280;49533;-34.520;150.798;2023-02-22T07:13:58;101593.78;;;21.20;61.48
63399;BME280;49533;-34.520;150.798;2023-02-22T07:16:25;101589.31;;;21.15;61.28
63399;BME280;49533;-34.520;150.798;2023-02-22T07:18:53;101590.09;;;21.16;61.83
63399;BME280;49533;-34.520;150.798;2023-02-22T07:21:20;101592.97;;;21.19;61.63
63399;BME280;49533;-34.520;150.798;2023-02-22T07:23:53;101594.13;;;21.18;61.38
63399;BME280;49533;-34.520;150.798;2023-02-22T07:26:21;101598.75;;;21.14;61.58
63399;BME280;49533;-34.520;150.798;2023-02-22T07:28:49;101595.53;;;21.12;61.80
63399;BME280;49533;-34.520;150.798;2023-02-22T07:31:16;101596.25;;;21.09;61.64
63399;BME280;49533;-34.520;150.798;2023-02-22T07:33:45;101605.81;;;21.12;61.79
63399;BME280;49533;-34.520;150.798;2023-02-22T07:36:13;101590.53;;;21.02;61.77
63399;BME280;49533;-34.520;150.798;2023-02-22T07:38:43;101601.88;;;21.13;62.12
63399;BME280;49533;-34.520;150.798;2023-02-22T07:41:11;101603.03;;;21.12;61.75
63399;BME280;49533;-34.520;150.798;2023-02-22T07:43:38;101608.56;;;21.12;61.95
63399;BME280;49533;-34.520;150.798;2023-02-22T07:46:05;101604.97;;;21.11;62.03
63399;BME280;49533;-34.520;150.798;2023-02-22T07:48:32;101602.22;;;21.11;61.61
63399;BME280;49533;-34.520;150.798;2023-02-22T07:50:59;101602.66;;;21.13;62.02
63399;BME280;49533;-34.520;150.798;2023-02-22T07:53:30;101588.84;;;21.13;61.89
63399;BME280;49533;-34.520;150.798;2023-02-22T07:56:00;101592.78;;;21.12;61.65
63399;BME280;49533;-34.520;150.798;2023-02-22T07:58:29;101597.84;;;21.10;61.75
63399;BME280;49533;-34.520;150.798;2023-02-22T08:00:56;101606.47;;;21.09;61.75
63399;BME280;49533;-34.520;150.798;2023-02-22T08:03:25;101608.44;;;21.08;61.77
63399;BME280;49533;-34.520;150.798;2023-02-22T08:05:54;101604.88;;;21.08;62.14
63399;BME280;49533;-34.520;150.798;2023-02-22T08:08:21;101595.81;;;21.07;62.30
63399;BME280;49533;-34.520;150.798;2023-02-22T08:10:49;101605.69;;;21.08;62.20
63399;BME280;49533;-34.520;150.798;2023-02-22T08:13:18;101585.47;;;21.04;61.96
63399;BME280;49533;-34.520;150.798;2023-02-22T08:15:45;101598.56;;;21.07;62.23
63399;BME280;49533;-34.520;150.798;2023-02-22T08:18:15;101606.84;;;21.07;61.98
63399;BME280;49533;-34.520;150.798;2023-02-22T08:20:44;101587.75;;;21.02;61.89
63399;BME280;49533;-34.520;150.798;2023-02-22T08:23:13;101595.34;;;21.05;62.18
63399;BME280;49533;-34.520;150.798;2023-02-22T08:25:41;101603.63;;;21.05;62.06
63399;BME280;49533;-34.520;150.798;2023-02-22T08:28:13;101598.34;;;21.00;62.22
63399;BME280;49533;-34.520;150.798;2023-02-22T08:30:41;101597.56;;;20.99;62.30
63399;BME280;49533;-34.520;150.798;2023-02-22T08:33:11;101598.34;;;21.00;62.32
63399;BME280;49533;-34.520;150.798;2023-02-22T08:35:41;101606.66;;;21.00;62.35
63399;BME280;49533;-34.520;150.798;2023-02-22T08:38:16;101603.88;;;21.00;62.04
63399;BME280;49533;-34.520;150.798;2023-02-22T08:40:43;101594.78;;;20.99;62.06
63399;BME280;49533;-34.520;150.798;2023-02-22T08:43:10;101585.59;;;20.95;62.50
63399;BME280;49533;-34.520;150.798;2023-02-22T08:45:39;101582.38;;;20.93;62.07
63399;BME280;49533;-34.520;150.798;2023-02-22T08:48:06;101595.50;;;20.96;62.25
63399;BME280;49533;-34.520;150.798;2023-02-22T08:50:33;101591.13;;;20.95;62.41
63399;BME280;49533;-34.520;150.798;2023-02-22T08:53:02;101575.06;;;20.85;62.49
63399;BME280;49533;-34.520;150.798;2023-02-22T08:55:32;101595.84;;;20.95;62.58
63399;BME280;49533;-34.520;150.798;2023-02-22T08:58:00;101593.09;;;20.95;62.15
63399;BME280;49533;-34.520;150.798;2023-02-22T09:00:30;101596.19;;;20.93;62.33
63399;BME280;49533;-34.520;150.798;2023-02-22T09:02:59;101594.94;;;20.91;62.55
63399;BME280;49533;-34.520;150.798;2023-02-22T09:05:26;101595.50;;;20.96;62.74
63399;BME280;49533;-34.520;150.798;2023-02-22T09:07:53;101600.66;;;20.98;62.66
63399;BME280;49533;-34.520;150.798;2023-02-22T09:10:23;101604.59;;;20.97;62.20
63399;BME280;49533;-34.520;150.798;2023-02-22T09:12:52;101606.09;;;20.94;62.30
63399;BME280;49533;-34.520;150.798;2023-02-22T09:15:23;101606.44;;;20.93;62.27
63399;BME280;49533;-34.520;150.798;2023-02-22T09:17:52;101600.81;;;20.89;62.52
63399;BME280;49533;-34.520;150.798;2023-02-22T09:20:20;101600.47;;;20.91;62.35
63399;BME280;49533;-34.520;150.798;2023-02-22T09:22:48;101604.38;;;20.90;62.55
63399;BME280;49533;-34.520;150.798;2023-02-22T09:25:16;101609.91;;;20.90;62.35
63399;BME280;49533;-34.520;150.798;2023-02-22T09:27:49;101613.81;;;20.89;62.69
63399;BME280;49533;-34.520;150.798;2023-02-22T09:30:23;101606.94;;;20.82;62.51
63399;BME280;49533;-34.520;150.798;2023-02-22T09:32:51;101609.78;;;20.86;62.41
63399;BME280;49533;-34.520;150.798;2023-02-22T09:35:20;101602.81;;;20.76;62.60
63399;BME280;49533;-34.520;150.798;2023-02-22T09:37:54;101602.66;;;20.85;62.33
63399;BME280;49533;-34.520;150.798;2023-02-22T09:40:22;101616.03;;;20.83;62.66
63399;BME280;49533;-34.520;150.798;2023-02-22T09:45:59;101617.19;;;20.82;62.38
63399;BME280;49533;-34.520;150.798;2023-02-22T09:48:32;101620.28;;;20.80;62.64
63399;BME280;49533;-34.520;150.798;2023-02-22T09:51:02;101620.75;;;20.82;62.77
63399;BME280;49533;-34.520;150.798;2023-02-22T09:53:39;101608.59;;;20.71;62.35
63399;BME280;49533;-34.520;150.798;2023-02-22T09:56:10;101620.66;;;20.79;62.58
63399;BME280;49533;-34.520;150.798;2023-02-22T09:58:49;101616.63;;;20.76;62.61
63399;BME280;49533;-34.520;150.798;2023-02-22T10:01:31;101618.22;;;20.77;62.69
63399;BME280;49533;-34.520;150.798;2023-02-22T10:04:21;101606.50;;;20.68;62.40
63399;BME280;49533;-34.520;150.798;2023-02-22T10:07:04;101613.50;;;20.78;62.70
63399;BME280;49533;-34.520;150.798;2023-02-22T10:09:40;101615.72;;;20.72;62.73
63399;BME280;49533;-34.520;150.798;2023-02-22T10:12:14;101628.81;;;20.75;62.73
63399;BME280;49533;-34.520;150.798;2023-02-22T10:15:09;101615.16;;;20.67;62.77
63399;BME280;49533;-34.520;150.798;2023-02-22T10:17:57;101621.47;;;20.67;62.81
63399;BME280;49533;-34.520;150.798;2023-02-22T10:20:49;101625.97;;;20.72;62.94
63399;BME280;49533;-34.520;150.798;2023-02-22T10:23:30;101623.53;;;20.70;62.61
63399;BME280;49533;-34.520;150.798;2023-02-22T10:26:14;101619.97;;;20.70;62.83
63399;BME280;49533;-34.520;150.798;2023-02-22T10:28:56;101622.75;;;20.70;62.53
63399;BME280;49533;-34.520;150.798;2023-02-22T10:31:31;101621.16;;;20.69;62.55
63399;BME280;49533;-34.520;150.798;2023-02-22T10:34:01;101613.19;;;20.67;62.84
63399;BME280;49533;-34.520;150.798;2023-02-22T10:36:30;101615.16;;;20.67;62.91
63399;BME280;49533;-34.520;150.798;2023-02-22T10:39:14;101610.78;;;20.66;62.65
63399;BME280;49533;-34.520;150.798;2023-02-22T10:41:48;101608.72;;;20.62;62.45
63399;BME280;49533;-34.520;150.798;2023-02-22T10:44:17;101590.66;;;20.53;62.71
63399;BME280;49533;-34.520;150.798;2023-02-22T10:46:45;101614.59;;;20.61;62.49
63399;BME280;49533;-34.520;150.798;2023-02-22T10:49:19;101613.78;;;20.60;62.63
63399;BME280;49533;-34.520;150.798;2023-02-22T10:51:59;101614.16;;;20.59;62.95
63399;BME280;49533;-34.520;150.798;2023-02-22T10:54:32;101615.66;;;20.56;62.71
63399;BME280;49533;-34.520;150.798;2023-02-22T10:57:02;101630.25;;;20.57;62.45
63399;BME280;49533;-34.520;150.798;2023-02-22T10:59:36;101621.50;;;20.55;62.33
63399;BME280;49533;-34.520;150.798;2023-02-22T11:02:28;101614.34;;;20.54;62.44
63399;BME280;49533;-34.520;150.798;2023-02-22T11:04:57;101618.25;;;20.53;62.49
63399;BME280;49533;-34.520;150.798;2023-02-22T11:07:30;101621.00;;;20.53;62.49
63399;BME280;49533;-34.520;150.798;2023-02-22T11:10:03;101620.59;;;20.51;62.75
63399;BME280;49533;-34.520;150.798;2023-02-22T11:12:34;101618.16;;;20.49;62.45
63399;BME280;49533;-34.520;150.798;2023-02-22T11:15:22;101615.72;;;20.48;62.50
63399;BME280;49533;-34.520;150.798;2023-02-22T11:17:54;101605.84;;;20.47;62.65
63399;BME280;49533;-34.520;150.798;2023-02-22T11:20:27;101614.13;;;20.47;62.48
63399;BME280;49533;-34.520;150.798;2023-02-22T11:23:01;101612.88;;;20.44;62.46
63399;BME280;49533;-34.520;150.798;2023-02-22T11:25:38;101615.97;;;20.42;62.49
63399;BME280;49533;-34.520;150.798;2023-02-22T11:28:16;101613.22;;;20.42;62.41
63399;BME280;49533;-34.520;150.798;2023-02-22T11:30:49;101615.97;;;20.42;62.27
63399;BME280;49533;-34.520;150.798;2023-02-22T11:33:21;101607.25;;;20.40;62.65
63399;BME280;49533;-34.520;150.798;2023-02-22T11:35:53;101598.50;;;20.38;62.67
63399;BME280;49533;-34.520;150.798;2023-02-22T11:38:27;101602.88;;;20.39;62.45
63399;BME280;49533;-34.520;150.798;2023-02-22T11:41:04;101606.78;;;20.38;62.54
63399;BME280;49533;-34.520;150.798;2023-02-22T11:43:33;101596.88;;;20.37;62.43
63399;BME280;49533;-34.520;150.798;2023-02-22T11:46:05;101593.31;;;20.37;62.53
63399;BME280;49533;-34.520;150.798;2023-02-22T11:48:35;101590.94;;;20.35;62.65
63399;BME280;49533;-34.520;150.798;2023-02-22T11:51:25;101575.88;;;20.33;62.42
63399;BME280;49533;-34.520;150.798;2023-02-22T11:54:18;101584.16;;;20.33;62.42
63399;BME280;49533;-34.520;150.798;2023-02-22T11:57:07;101581.72;;;20.31;62.79
63399;BME280;49533;-34.520;150.798;2023-02-22T11:59:49;101574.16;;;20.28;62.63
63399;BME280;49533;-34.520;150.798;2023-02-22T12:02:48;101580.81;;;20.27;62.55
63399;BME280;49533;-34.520;150.798;2023-02-22T12:05:29;101578.03;;;20.27;62.46
63399;BME280;49533;-34.520;150.798;2023-02-22T12:08:19;101574.47;;;20.27;62.62
63399;BME280;49533;-34.520;150.798;2023-02-22T12:11:11;101563.22;;;20.19;62.39
63399;BME280;49533;-34.520;150.798;2023-02-22T12:14:00;101568.88;;;20.23;62.59
63399;BME280;49533;-34.520;150.798;2023-02-22T12:19:36;101570.00;;;20.22;62.60
63399;BME280;49533;-34.520;150.798;2023-02-22T12:22:14;101550.13;;;20.16;62.40
63399;BME280;49533;-34.520;150.798;2023-02-22T12:24:57;101553.34;;;20.18;62.48
63399;BME280;49533;-34.520;150.798;2023-02-22T12:27:31;101556.44;;;20.17;62.65
63399;BME280;49533;-34.520;150.798;2023-02-22T12:30:06;101558.41;;;20.16;62.62
63399;BME280;49533;-34.520;150.798;2023-02-22T12:32:39;101549.66;;;20.14;62.25
63399;BME280;49533;-34.520;150.798;2023-02-22T12:38:04;101545.66;;;20.12;62.20
63399;BME280;49533;-34.520;150.798;2023-02-22T12:41:05;101551.53;;;20.10;62.13
63399;BME280;49533;-34.520;150.798;2023-02-22T12:43:42;101544.75;;;20.08;62.42
63399;BME280;49533;-34.520;150.798;2023-02-22T12:46:18;101537.16;;;20.05;62.16
63399;BME280;49533;-34.520;150.798;2023-02-22T12:48:56;101537.28;;;20.08;62.01
63399;BME280;49533;-34.520;150.798;2023-02-22T12:51:44;101537.16;;;20.05;62.03
63399;BME280;49533;-34.520;150.798;2023-02-22T12:54:22;101545.09;;;20.06;62.13
63399;BME280;49533;-34.520;150.798;2023-02-22T12:56:58;101546.25;;;20.05;62.16
63399;BME280;49533;-34.520;150.798;2023-02-22T13:02:21;101547.28;;;20.01;61.99
63399;BME280;49533;-34.520;150.798;2023-02-22T13:04:52;101539.81;;;20.01;61.91
63399;BME280;49533;-34.520;150.798;2023-02-22T13:07:38;101541.75;;;20.01;61.88